Time;durP1;ratioP1;P1;durP2;ratioP2;P2;SDS_P1;SDS_P2;PMS_P1;PMS_P2;Temp;Humidity;BMP_temperature;BMP_pressure;BME280_temperature;BME280_humidity;BME280_pressure;Samples;Min_cycle;Max_cycle;Signal;HPM_P1;HPM_P2
2022/04/19 00:01:18;;;;;;;6.88;4.90;;;;;;;9.34;72.68;99062.59;5011938;28;20194;-83
2022/04/19 00:03:44;;;;;;;6.20;5.20;;;;;;;9.23;73.20;99066.91;5011708;28;20214;-83
2022/04/19 00:06:11;;;;;;;7.85;5.70;;;;;;;9.23;72.96;99062.38;5011944;28;20540;-83
2022/04/19 00:08:38;;;;;;;6.75;4.80;;;;;;;9.23;72.90;99064.22;5011825;28;20197;-82
2022/04/19 00:11:04;;;;;;;6.40;5.00;;;;;;;9.04;73.37;99056.41;5011747;28;20224;-83
2022/04/19 00:13:31;;;;;;;5.45;4.75;;;;;;;8.95;74.09;99047.97;5011926;28;20185;-83
2022/04/19 00:15:58;;;;;;;6.88;4.75;;;;;;;8.90;74.33;99050.03;5011673;28;20593;-83
2022/04/19 00:18:26;;;;;;;8.15;4.57;;;;;;;8.90;73.61;99055.41;5013067;28;20227;-83
2022/04/19 00:20:54;;;;;;;9.57;5.05;;;;;;;8.80;74.55;99053.38;5015548;28;20533;-82
2022/04/19 00:23:21;;;;;;;5.72;5.13;;;;;;;8.96;73.84;99046.13;5015328;28;20193;-83
2022/04/19 00:25:50;;;;;;;7.28;5.38;;;;;;;8.93;74.08;99049.88;5015000;28;20209;-83
2022/04/19 00:28:16;;;;;;;5.82;4.75;;;;;;;8.77;75.52;99051.72;5015142;28;20185;-83
2022/04/19 00:30:44;;;;;;;6.93;5.15;;;;;;;8.72;76.34;99040.41;5014770;28;20185;-83
2022/04/19 00:33:11;;;;;;;6.78;5.55;;;;;;;8.74;76.10;99046.53;5014784;28;20679;-83
2022/04/19 00:35:39;;;;;;;6.90;5.40;;;;;;;8.67;76.78;99042.50;5014858;28;20191;-82
2022/04/19 00:38:06;;;;;;;5.80;5.28;;;;;;;8.63;77.08;99038.25;5014561;28;20193;-82
2022/04/19 00:40:33;;;;;;;8.65;5.72;;;;;;;8.48;78.03;99035.53;5014869;28;20227;-83
2022/04/19 00:43:00;;;;;;;5.97;4.90;;;;;;;8.51;77.83;99038.03;5014957;28;20188;-83
2022/04/19 00:45:26;;;;;;;5.00;4.50;;;;;;;8.48;78.05;99031.97;5014515;28;20199;-82
2022/04/19 00:47:54;;;;;;;7.43;5.20;;;;;;;8.44;78.64;99031.28;5014603;28;20204;-83
2022/04/19 00:50:22;;;;;;;5.22;4.65;;;;;;;8.23;79.18;99028.03;5014763;28;20208;-83
2022/04/19 00:52:50;;;;;;;6.53;5.30;;;;;;;8.18;79.74;99027.41;5013169;28;20190;-83
2022/04/19 00:55:17;;;;;;;8.65;5.80;;;;;;;8.32;79.00;99029.28;4994573;28;20237;-82
2022/04/19 00:57:46;;;;;;;6.30;4.88;;;;;;;8.33;78.01;99023.84;4995242;28;20185;-83
2022/04/19 01:00:14;;;;;;;9.95;4.90;;;;;;;8.28;79.00;99027.75;4995020;28;20547;-83
2022/04/19 01:02:41;;;;;;;6.85;5.22;;;;;;;8.28;78.96;99030.44;5003951;28;20197;-83
2022/04/19 01:05:09;;;;;;;5.68;4.93;;;;;;;8.29;78.77;99029.47;5014336;28;20591;-82
2022/04/19 01:07:36;;;;;;;5.55;4.93;;;;;;;8.22;79.40;99028.94;5014777;28;20853;-82
2022/04/19 01:10:05;;;;;;;5.93;5.30;;;;;;;8.29;79.34;99024.09;5014288;28;20209;-83
2022/04/19 01:15:17;;;;;;;6.75;5.03;;;;;;;8.27;79.04;99028.69;5014270;28;20203;-83
2022/04/19 01:17:45;;;;;;;6.93;5.18;;;;;;;8.22;79.48;99023.59;5014433;28;20200;-83
2022/04/19 01:20:13;;;;;;;5.70;4.57;;;;;;;8.13;80.43;99024.13;5014502;28;20860;-83
2022/04/19 01:22:42;;;;;;;8.05;4.47;;;;;;;7.99;81.96;99027.59;5014166;28;20250;-82
2022/04/19 01:25:10;;;;;;;6.05;5.45;;;;;;;8.12;80.92;99025.94;5014209;28;20207;-83
2022/04/19 01:27:37;;;;;;;6.22;4.60;;;;;;;7.99;81.95;99027.59;5014156;28;20189;-82
2022/04/19 01:30:06;;;;;;;5.60;4.80;;;;;;;7.97;82.87;99028.63;5013176;28;20191;-82
2022/04/19 01:32:33;;;;;;;5.47;4.80;;;;;;;8.00;83.01;99028.44;5013558;28;20290;-82
2022/04/19 01:35:08;;;;;;;6.63;4.70;;;;;;;7.88;84.12;99020.16;5013947;28;20191;-83
2022/04/19 01:37:35;;;;;;;7.93;4.75;;;;;;;7.82;85.43;99017.81;5013535;28;20279;-83
2022/04/19 01:40:18;;;;;;;5.20;4.70;;;;;;;7.81;85.71;99023.28;5013426;28;20227;-83
2022/04/19 01:42:46;;;;;;;9.07;5.25;;;;;;;7.75;85.63;99026.28;5013870;28;20190;-82
2022/04/19 01:45:13;;;;;;;6.63;5.13;;;;;;;7.65;86.05;99021.44;5013914;28;20192;-82
2022/04/19 01:47:40;;;;;;;6.05;4.35;;;;;;;7.59;86.25;99024.44;5013715;28;20648;-82
2022/04/19 01:50:09;;;;;;;6.07;4.40;;;;;;;7.64;86.08;99025.06;5013877;28;20203;-82
2022/04/19 01:52:36;;;;;;;5.75;5.15;;;;;;;7.84;84.86;99017.72;5014970;28;20242;-82
2022/04/19 01:55:06;;;;;;;5.72;5.10;;;;;;;7.89;83.84;99011.16;5011184;28;20201;-82
2022/04/19 01:57:33;;;;;;;6.90;5.10;;;;;;;7.59;84.95;99012.88;5033414;28;20273;-83
2022/04/19 02:00:00;;;;;;;7.35;5.20;;;;;;;7.45;85.83;99008.28;5033343;28;20560;-83
2022/04/19 02:02:27;;;;;;;5.70;5.00;;;;;;;7.44;86.45;99014.56;5033286;28;20202;-83
2022/04/19 02:04:53;;;;;;;6.80;4.95;;;;;;;7.36;86.95;99009.63;5033278;28;20182;-82
2022/04/19 02:07:20;;;;;;;7.38;4.93;;;;;;;7.36;86.94;99006.09;5033159;28;20195;-81
2022/04/19 02:09:47;;;;;;;5.47;4.80;;;;;;;7.22;88.13;99005.03;5032702;28;20297;-82
2022/04/19 02:12:15;;;;;;;5.22;4.50;;;;;;;7.22;88.66;98998.81;5034035;28;20182;-82
2022/04/19 02:14:42;;;;;;;5.80;4.70;;;;;;;7.23;88.72;99000.53;5019282;28;20202;-82
2022/04/19 02:17:10;;;;;;;5.72;4.28;;;;;;;7.12;89.38;99005.59;5013328;28;20191;-82
2022/04/19 02:19:36;;;;;;;5.17;4.60;;;;;;;7.03;90.88;99004.28;5012715;28;20255;-82
2022/04/19 02:22:05;;;;;;;5.60;5.00;;;;;;;7.06;90.98;99006.81;5012957;28;20202;-82
2022/04/19 02:24:32;;;;;;;5.80;5.03;;;;;;;7.07;90.42;99008.53;5012678;28;20189;-82
2022/04/19 02:26:58;;;;;;;5.72;4.78;;;;;;;7.14;89.94;99003.72;5013133;28;20536;-81
2022/04/19 02:29:26;;;;;;;5.93;4.53;;;;;;;7.08;89.73;99002.25;5012623;28;20202;-83
2022/04/19 02:31:53;;;;;;;6.63;4.78;;;;;;;7.12;89.61;99008.28;5012985;28;20206;-83
2022/04/19 02:34:20;;;;;;;5.18;4.68;;;;;;;7.08;89.93;99002.25;5012996;28;20549;-82
2022/04/19 02:36:47;;;;;;;5.47;4.60;;;;;;;7.09;89.07;98995.91;5012676;28;20560;-82
2022/04/19 02:39:13;;;;;;;4.70;4.30;;;;;;;7.13;89.10;98999.31;5012861;28;20194;-82
2022/04/19 02:41:40;;;;;;;4.72;4.03;;;;;;;6.92;90.37;98998.63;5012643;28;20639;-83
2022/04/19 02:44:08;;;;;;;6.55;4.30;;;;;;;6.86;91.53;99005.19;5012817;28;20187;-82
2022/04/19 02:46:36;;;;;;;7.70;4.90;;;;;;;6.89;91.41;99003.19;5012441;28;20301;-82
2022/04/19 02:49:04;;;;;;;5.90;4.97;;;;;;;6.93;91.18;99003.03;5012378;28;20214;-83
2022/04/19 02:51:32;;;;;;;5.30;3.97;;;;;;;6.85;91.79;99004.31;5012322;28;20219;-83
2022/04/19 02:53:59;;;;;;;6.25;5.40;;;;;;;7.09;90.23;99006.63;5001705;28;20203;-83
2022/04/19 02:56:25;;;;;;;6.38;4.80;;;;;;;6.69;92.33;99008.72;4992843;28;20245;-83
2022/04/19 02:58:52;;;;;;;5.75;4.80;;;;;;;6.72;93.26;99002.38;4992699;28;20236;-83
2022/04/19 03:01:19;;;;;;;6.65;4.55;;;;;;;6.75;92.15;99002.19;4992712;28;20230;-82
2022/04/19 03:03:47;;;;;;;6.88;4.55;;;;;;;6.68;92.88;99001.66;4992890;28;20267;-82
2022/04/19 03:06:14;;;;;;;5.20;4.70;;;;;;;6.71;92.07;98998.78;4992604;28;20188;-82
2022/04/19 03:08:40;;;;;;;5.93;4.82;;;;;;;6.65;92.43;98997.31;4992287;28;20200;-82
2022/04/19 03:11:07;;;;;;;4.85;4.35;;;;;;;6.58;92.83;98995.03;4992359;28;20179;-82
2022/04/19 03:13:33;;;;;;;5.28;4.78;;;;;;;6.54;93.40;98997.00;4992907;28;20250;-82
2022/04/19 03:16:00;;;;;;;6.72;4.40;;;;;;;6.46;94.31;98986.69;4992261;28;20246;-82
2022/04/19 03:18:27;;;;;;;7.22;4.45;;;;;;;6.52;94.23;98995.34;4992728;28;20188;-82
2022/04/19 03:20:55;;;;;;;9.73;5.75;;;;;;;6.41;94.66;98988.72;4992700;28;20570;-83
2022/04/19 03:28:49;;;;;;;6.25;4.25;;;;;;;6.23;96.68;98982.50;4992919;28;20195;-83
2022/04/19 03:31:16;;;;;;;5.50;4.63;;;;;;;6.19;97.39;98988.09;4993541;28;20207;-83
2022/04/19 03:33:42;;;;;;;5.32;4.57;;;;;;;6.26;96.88;98990.38;4992262;28;20183;-83
2022/04/19 03:36:10;;;;;;;5.05;4.57;;;;;;;6.20;97.36;98988.03;5007216;28;20542;-83
2022/04/19 03:38:37;;;;;;;6.22;4.70;;;;;;;6.21;97.00;98980.84;5011644;28;20205;-82
2022/04/19 03:41:04;;;;;;;5.40;4.50;;;;;;;6.29;96.96;98978.69;5012045;28;20660;-83
2022/04/19 03:43:32;;;;;;;5.00;4.20;;;;;;;6.34;96.52;98981.97;5012136;28;20221;-84
2022/04/19 03:45:59;;;;;;;7.63;4.85;;;;;;;6.22;97.05;98977.25;5012166;28;20187;-83
2022/04/19 03:48:25;;;;;;;6.30;4.97;;;;;;;6.18;97.33;98983.69;5011664;28;20201;-83
2022/04/19 03:50:53;;;;;;;5.63;4.53;;;;;;;6.34;96.01;98981.97;5012077;28;20194;-84
2022/04/19 03:53:21;;;;;;;6.70;5.40;;;;;;;6.29;96.50;98986.69;5007549;28;20187;-82
2022/04/19 03:55:47;;;;;;;6.15;4.68;;;;;;;6.17;96.65;98973.94;4996013;28;20231;-82
2022/04/19 03:58:14;;;;;;;5.60;4.75;;;;;;;5.99;98.54;98971.25;4996123;28;20549;-82
2022/04/19 04:00:40;;;;;;;6.15;5.20;;;;;;;5.99;98.74;98981.94;4996212;28;20708;-82
2022/04/19 04:03:08;;;;;;;5.65;4.63;;;;;;;5.92;99.78;98979.59;4995675;28;20194;-82
2022/04/19 04:05:35;;;;;;;6.15;5.32;;;;;;;5.99;99.60;98971.25;4995588;28;20210;-83
2022/04/19 04:08:01;;;;;;;5.18;4.68;;;;;;;5.99;98.54;98970.34;4996082;28;20197;-82
2022/04/19 04:10:29;;;;;;;6.90;4.90;;;;;;;6.08;98.06;98974.38;4995559;28;20213;-83
2022/04/19 04:12:58;;;;;;;8.02;4.72;;;;;;;6.00;99.14;98977.44;4995400;28;20302;-84
2022/04/19 04:15:25;;;;;;;7.25;5.20;;;;;;;6.05;98.54;98978.09;4995940;28;20534;-82
2022/04/19 04:17:51;;;;;;;10.23;4.88;;;;;;;6.11;97.71;98974.25;4995747;28;20205;-83
2022/04/19 04:20:18;;;;;;;5.55;4.38;;;;;;;6.16;97.47;98967.72;5007334;28;20191;-84
2022/04/19 04:22:45;;;;;;;5.57;4.97;;;;;;;6.09;97.67;98977.00;5015567;28;20241;-84
2022/04/19 04:25:11;;;;;;;6.90;5.45;;;;;;;6.09;98.50;98984.16;5015705;28;20552;-83
2022/04/19 04:27:39;;;;;;;8.50;5.68;;;;;;;6.19;98.22;98983.59;5015617;28;20505;-82
2022/04/19 04:30:07;;;;;;;6.00;5.40;;;;;;;6.38;95.62;98982.69;5015156;28;20237;-83
2022/04/19 04:32:34;;;;;;;7.07;5.65;;;;;;;6.32;96.32;98989.19;5015137;28;20183;-83
2022/04/19 04:35:00;;;;;;;11.88;6.70;;;;;;;6.34;96.00;98989.13;5014773;28;20198;-83
2022/04/19 04:37:27;;;;;;;5.90;5.07;;;;;;;6.30;96.73;98990.22;5015069;28;20282;-83
2022/04/19 04:39:53;;;;;;;6.75;5.05;;;;;;;6.38;96.94;98991.56;5015029;28;20187;-82
2022/04/19 04:42:20;;;;;;;5.82;5.20;;;;;;;6.38;96.47;98988.91;5014640;28;20214;-83
2022/04/19 04:44:48;;;;;;;7.50;4.82;;;;;;;6.36;96.73;98988.09;5011965;28;20210;-83
2022/04/19 04:49:59;;;;;;;5.45;4.93;;;;;;;6.15;97.34;98981.16;5014890;28;20209;-83
2022/04/19 04:52:26;;;;;;;5.97;4.70;;;;;;;6.28;96.95;98984.94;5014817;28;20198;-83
2022/04/19 04:54:52;;;;;;;10.38;4.93;;;;;;;6.17;97.63;98985.50;4999178;28;20605;-81
2022/04/19 04:57:19;;;;;;;10.57;4.78;;;;;;;6.07;98.21;98981.53;5014665;28;20202;-83
2022/04/19 04:59:48;;;;;;;8.05;5.75;;;;;;;6.03;99.70;98979.97;5026758;28;20200;-82
2022/04/19 05:02:17;;;;;;;8.48;5.65;;;;;;;6.04;98.99;98984.38;5014158;28;20250;-83
2022/04/19 05:04:44;;;;;;;7.03;5.40;;;;;;;6.24;98.00;98975.34;5013029;28;20209;-84
2022/04/19 05:07:15;;;;;;;7.13;5.85;;;;;;;6.08;97.86;98985.06;5014702;28;20202;-82
2022/04/19 05:09:41;;;;;;;5.10;4.30;;;;;;;6.08;98.45;98988.59;5014587;28;20614;-82
2022/04/19 05:12:09;;;;;;;8.43;5.60;;;;;;;6.00;97.49;98982.78;5014319;28;20552;-83
2022/04/19 05:14:36;;;;;;;5.70;5.10;;;;;;;6.11;96.97;98982.28;5013830;28;20249;-82
2022/04/19 05:17:04;;;;;;;6.80;5.88;;;;;;;6.40;94.98;98989.69;5014289;28;20660;-82
2022/04/19 05:19:31;;;;;;;5.22;4.65;;;;;;;6.53;93.27;98989.91;5014033;28;20207;-82
2022/04/19 05:21:58;;;;;;;8.02;4.93;;;;;;;6.51;92.75;98988.25;5013869;28;20207;-82
2022/04/19 05:24:24;;;;;;;5.53;5.03;;;;;;;6.58;91.88;98990.56;5014301;28;20186;-82
2022/04/19 05:26:51;;;;;;;9.45;6.10;;;;;;;6.57;91.79;98990.63;5015101;28;20206;-82
2022/04/19 05:29:18;;;;;;;7.38;5.90;;;;;;;6.62;91.46;98994.78;5014737;28;20193;-87
2022/04/19 05:31:44;;;;;;;7.82;5.15;;;;;;;6.65;91.13;99001.81;5014524;28;20634;-83
2022/04/19 05:34:12;;;;;;;7.78;5.80;;;;;;;6.85;89.88;98996.28;5014363;28;20644;-83
2022/04/19 05:36:40;;;;;;;6.28;5.50;;;;;;;6.97;87.85;98993.91;5013808;28;20183;-83
2022/04/19 05:39:06;;;;;;;6.78;5.93;;;;;;;6.88;89.04;98993.44;5013871;28;20209;-83
2022/04/19 05:41:35;;;;;;;6.82;6.13;;;;;;;6.79;89.35;98995.75;5013148;28;20656;-81
2022/04/19 05:44:01;;;;;;;9.07;5.88;;;;;;;6.79;88.30;98996.59;5013107;28;20331;-84
2022/04/19 05:46:28;;;;;;;9.82;5.50;;;;;;;6.96;87.95;98989.50;5012741;28;20210;-83
2022/04/19 05:48:55;;;;;;;9.52;5.70;;;;;;;7.11;86.24;98999.38;5013287;28;20213;-84
2022/04/19 05:51:23;;;;;;;6.85;5.32;;;;;;;6.92;87.26;98995.94;5012693;28;20191;-83
2022/04/19 05:53:49;;;;;;;6.00;5.25;;;;;;;7.06;85.98;98983.56;5013104;28;20293;-83
2022/04/19 05:56:16;;;;;;;8.95;5.40;;;;;;;7.10;85.40;98993.19;5012916;28;20248;-84
2022/04/19 05:58:43;;;;;;;7.40;5.90;;;;;;;7.31;84.52;98987.59;5013223;28;20241;-84
2022/04/19 06:01:09;;;;;;;9.10;5.80;;;;;;;7.66;81.96;98988.31;5012480;28;20309;-84
2022/04/19 06:06:20;;;;;;;8.68;5.78;;;;;;;7.92;79.54;98996.72;5013008;28;20194;-84
2022/04/19 06:08:49;;;;;;;6.78;5.47;;;;;;;7.77;80.91;98998.44;5012681;28;20252;-83
2022/04/19 06:11:15;;;;;;;8.07;6.07;;;;;;;7.77;80.32;98993.09;5012705;28;20194;-84
2022/04/19 06:13:42;;;;;;;11.10;8.45;;;;;;;7.93;80.30;98999.28;5012678;28;20542;-83
2022/04/19 06:16:09;;;;;;;7.57;6.00;;;;;;;8.18;78.84;98995.22;5012696;28;20195;-84
2022/04/19 06:18:36;;;;;;;7.47;5.95;;;;;;;8.42;77.41;98994.78;5012841;28;20188;-84
2022/04/19 06:21:04;;;;;;;6.95;5.68;;;;;;;8.41;77.65;99001.09;5012838;28;20524;-84
2022/04/19 06:23:31;;;;;;;7.63;6.70;;;;;;;8.43;76.46;99002.72;5012407;28;20188;-84
2022/04/19 06:25:59;;;;;;;8.02;7.20;;;;;;;8.61;75.28;99003.44;5012836;28;20227;-85
2022/04/19 06:28:26;;;;;;;6.45;5.80;;;;;;;8.76;74.72;99001.69;5012780;28;20196;-84
2022/04/19 06:30:53;;;;;;;6.05;5.43;;;;;;;8.91;73.51;99008.81;5012634;28;20211;-84
2022/04/19 06:33:19;;;;;;;7.72;6.60;;;;;;;8.83;73.75;99005.72;5012421;28;20200;-84
2022/04/19 06:35:47;;;;;;;7.63;6.22;;;;;;;9.16;72.44;98997.44;5012414;28;20199;-84
2022/04/19 06:38:13;;;;;;;7.72;6.60;;;;;;;9.34;70.08;98991.88;5012533;28;20205;-84
2022/04/19 06:40:40;;;;;;;7.47;6.13;;;;;;;9.48;70.16;98989.19;5012588;28;20296;-84
2022/04/19 06:43:09;;;;;;;10.07;6.95;;;;;;;9.47;69.35;98989.25;5012498;28;20209;-85
2022/04/19 06:45:36;;;;;;;8.43;7.32;;;;;;;9.60;69.21;98988.38;5012103;28;20256;-85
2022/04/19 06:48:05;;;;;;;11.02;7.10;;;;;;;9.75;67.92;98986.56;5012145;28;20190;-84
2022/04/19 06:50:32;;;;;;;8.10;6.65;;;;;;;10.00;66.21;98987.66;5012463;28;20209;-84
2022/04/19 06:52:58;;;;;;;9.93;6.85;;;;;;;9.79;66.49;98992.56;5011666;28;20250;-85
2022/04/19 06:55:25;;;;;;;11.73;8.43;;;;;;;10.05;64.93;98988.19;5012032;28;20230;-84
2022/04/19 06:57:52;;;;;;;8.20;6.55;;;;;;;10.52;61.51;98994.97;5011968;28;20186;-85
2022/04/19 07:00:21;;;;;;;10.73;6.63;;;;;;;10.57;60.96;98995.53;5012213;28;20676;-85
2022/04/19 07:02:48;;;;;;;10.07;6.68;;;;;;;10.60;59.50;98995.28;5013071;28;20233;-84
2022/04/19 07:05:15;;;;;;;9.15;7.00;;;;;;;11.06;57.83;98994.84;5012048;28;20274;-84
2022/04/19 07:07:43;;;;;;;7.57;6.32;;;;;;;11.42;55.50;99001.31;5012043;28;20626;-85
2022/04/19 07:10:11;;;;;;;7.38;6.50;;;;;;;11.60;54.93;98995.56;5012190;28;20202;-85
2022/04/19 07:12:38;;;;;;;9.95;6.55;;;;;;;11.82;53.44;98998.41;5012103;28;20189;-86
2022/04/19 07:15:06;;;;;;;10.43;6.28;;;;;;;11.95;52.64;99000.28;5012110;28;20280;-84
2022/04/19 07:17:37;;;;;;;7.30;5.75;;;;;;;11.92;52.48;99004.06;5012025;28;20329;-85
2022/04/19 07:28:17;;;;;;;8.98;6.85;;;;;;;12.76;50.01;98996.88;5010854;28;20237;-83
2022/04/19 07:30:44;;;;;;;7.57;6.50;;;;;;;12.93;49.67;98988.34;5012165;28;20528;-85
2022/04/19 07:33:12;;;;;;;8.85;6.15;;;;;;;13.13;49.23;98984.06;5011661;28;20195;-85
2022/04/19 07:35:38;;;;;;;12.30;7.75;;;;;;;13.31;48.67;98981.78;5011723;28;20180;-85
2022/04/19 07:38:05;;;;;;;9.73;7.43;;;;;;;13.45;48.30;98977.13;5011692;28;20238;-85
2022/04/19 07:40:32;;;;;;;9.85;7.30;;;;;;;13.64;47.66;98980.09;5011689;28;20223;-85
2022/04/19 07:42:58;;;;;;;11.25;7.28;;;;;;;13.62;47.26;98975.78;5011225;28;20207;-84
2022/04/19 07:45:25;;;;;;;7.40;6.20;;;;;;;13.66;47.18;98966.44;5011238;28;20217;-84
2022/04/19 07:47:51;;;;;;;10.45;6.40;;;;;;;13.71;46.95;98961.50;5011346;28;20190;-84
2022/04/19 07:50:19;;;;;;;8.40;6.43;;;;;;;14.15;45.41;98962.41;4991845;28;20211;-84
2022/04/19 07:52:46;;;;;;;13.55;8.10;;;;;;;14.20;45.63;98965.59;4992337;28;20203;-85
2022/04/19 07:55:13;;;;;;;9.45;6.22;;;;;;;14.54;44.56;98958.25;4991813;28;20227;-85
2022/04/19 07:57:39;;;;;;;9.63;5.82;;;;;;;14.82;43.62;98957.75;4991784;28;20190;-85
2022/04/19 08:00:07;;;;;;;6.68;5.75;;;;;;;15.11;42.60;98957.94;4991961;28;20196;-84
2022/04/19 08:02:33;;;;;;;7.53;5.95;;;;;;;15.13;42.53;98954.09;4991809;28;20542;-85
2022/04/19 08:05:00;;;;;;;6.88;5.32;;;;;;;15.31;41.83;98956.16;4991423;28;20658;-85
2022/04/19 08:07:28;;;;;;;8.25;5.18;;;;;;;15.45;41.55;98942.25;4991706;28;20197;-85
2022/04/19 08:09:58;;;;;;;9.00;6.65;;;;;;;15.59;41.12;98957.31;4991429;28;20196;-85
2022/04/19 08:12:25;;;;;;;14.48;6.57;;;;;;;15.77;40.87;98950.25;4991467;28;20222;-85
2022/04/19 08:14:51;;;;;;;9.32;6.00;;;;;;;16.04;39.86;98946.91;4991629;28;20202;-84
2022/04/19 08:17:18;;;;;;;7.63;6.10;;;;;;;16.30;39.53;98945.50;4991591;28;20269;-84
2022/04/19 08:19:45;;;;;;;9.10;5.45;;;;;;;16.40;39.35;98946.38;4991482;28;20195;-84
2022/04/19 08:22:11;;;;;;;6.50;4.65;;;;;;;16.45;38.58;98949.53;4991579;28;20221;-84
2022/04/19 08:24:40;;;;;;;5.68;5.03;;;;;;;16.64;38.48;98937.78;4991379;28;20202;-85
2022/04/19 08:27:06;;;;;;;8.10;5.38;;;;;;;16.47;38.24;98944.81;4991493;28;20199;-85
2022/04/19 08:29:33;;;;;;;4.63;4.20;;;;;;;16.33;37.03;98943.38;4991409;28;20211;-85
2022/04/19 08:31:59;;;;;;;4.65;3.30;;;;;;;16.55;36.87;98942.25;4991617;28;20641;-85
2022/04/19 08:34:26;;;;;;;6.40;3.50;;;;;;;16.74;36.77;98937.81;4991097;28;20283;-84
2022/04/19 08:36:53;;;;;;;5.18;4.20;;;;;;;16.80;36.26;98939.94;4991315;28;20203;-85
2022/04/19 08:39:19;;;;;;;7.88;4.13;;;;;;;16.53;36.92;98936.09;4992639;28;20639;-85
2022/04/19 08:41:49;;;;;;;6.07;4.05;;;;;;;17.00;36.58;98929.91;4995287;28;20638;-85
2022/04/19 08:44:17;;;;;;;6.47;4.50;;;;;;;16.86;36.24;98923.06;4994640;28;20188;-85
2022/04/19 08:46:44;;;;;;;7.80;4.10;;;;;;;17.00;36.15;98925.31;4994949;28;20634;-85
2022/04/19 08:49:11;;;;;;;5.88;4.47;;;;;;;17.34;35.63;98932.94;4994403;28;20318;-84
2022/04/19 08:51:40;;;;;;;4.57;3.47;;;;;;;17.69;34.43;98926.81;4994559;28;20295;-84
2022/04/19 08:59:38;;;;;;;4.15;3.45;;;;;;;18.11;32.70;98909.09;4994349;28;20241;-85
2022/04/19 09:02:06;;;;;;;5.75;4.43;;;;;;;18.04;33.48;98913.44;4994481;28;20666;-84
2022/04/19 09:04:33;;;;;;;4.63;3.60;;;;;;;18.09;33.12;98912.00;4994500;28;20203;-86
2022/04/19 09:07:00;;;;;;;4.72;4.28;;;;;;;18.18;32.87;98912.94;4994256;28;20191;-85
2022/04/19 09:09:29;;;;;;;4.45;3.60;;;;;;;18.43;32.34;98910.41;4994052;28;20188;-85
2022/04/19 09:12:08;;;;;;;5.32;3.63;;;;;;;18.46;31.87;98904.69;4994190;28;20234;-85
2022/04/19 09:14:35;;;;;;;4.97;3.30;;;;;;;18.62;31.62;98907.53;4994192;28;20188;-85
2022/04/19 09:17:08;;;;;;;3.33;3.00;;;;;;;18.72;31.43;98902.00;4994427;28;20187;-85
2022/04/19 09:19:36;;;;;;;3.50;3.20;;;;;;;18.31;31.56;98899.75;4995001;28;20203;-85
2022/04/19 09:22:03;;;;;;;5.30;3.33;;;;;;;18.39;31.53;98899.00;4994323;28;20612;-85
2022/04/19 09:24:31;;;;;;;3.40;3.10;;;;;;;18.39;31.77;98907.19;4994095;28;20216;-85
2022/04/19 09:26:58;;;;;;;4.03;3.22;;;;;;;18.32;31.91;98897.91;4993936;28;20207;-85
2022/04/19 09:29:27;;;;;;;3.05;2.75;;;;;;;18.58;31.20;98895.22;4994828;28;20202;-85
2022/04/19 09:31:57;;;;;;;4.05;2.90;;;;;;;18.32;31.76;98885.13;5010219;28;20655;-84
2022/04/19 09:34:26;;;;;;;6.60;3.63;;;;;;;18.71;31.70;98883.94;5014005;28;20187;-85
2022/04/19 09:36:54;;;;;;;4.50;3.47;;;;;;;19.01;31.94;98879.91;5012012;28;20200;-84
2022/04/19 09:39:27;;;;;;;5.15;3.30;;;;;;;19.21;31.16;98886.00;5010760;28;20207;-85
2022/04/19 09:42:03;;;;;;;4.90;3.85;;;;;;;19.25;31.17;98883.81;4996849;28;20194;-85
2022/04/19 09:44:31;;;;;;;5.65;3.22;;;;;;;18.71;31.69;98879.31;5002162;28;20203;-85
2022/04/19 09:47:05;;;;;;;4.50;4.10;;;;;;;18.81;31.64;98873.78;5013853;28;20217;-85
2022/04/19 09:49:42;;;;;;;6.70;4.20;;;;;;;19.13;31.47;98870.44;5013313;28;20389;-85
2022/04/19 09:52:09;;;;;;;4.55;3.55;;;;;;;19.38;31.03;98865.13;5000371;28;20658;-85
2022/04/19 09:54:35;;;;;;;6.30;4.65;;;;;;;19.42;30.86;98869.22;5014532;28;20188;-87
2022/04/19 09:57:09;;;;;;;6.20;3.88;;;;;;;19.40;30.89;98862.22;5013988;28;20232;-87
2022/04/19 09:59:43;;;;;;;3.95;3.50;;;;;;;19.33;31.13;98854.69;5014840;28;20281;-87
2022/04/19 10:10:25;;;;;;;3.05;2.75;;;;;;;19.11;30.57;98844.34;5023305;28;20204;-85
2022/04/19 10:12:54;;;;;;;4.05;3.65;;;;;;;19.01;30.96;98844.44;5018882;28;20199;-86
2022/04/19 10:15:22;;;;;;;6.57;4.80;;;;;;;19.31;30.60;98844.94;5021911;28;20188;-87
2022/04/19 10:17:49;;;;;;;5.75;4.07;;;;;;;19.27;30.71;98841.69;5025209;28;20206;-87
2022/04/19 10:20:16;;;;;;;4.90;3.70;;;;;;;19.42;30.55;98841.06;5015297;28;20190;-86
2022/04/19 10:22:47;;;;;;;5.90;5.30;;;;;;;19.27;30.83;98840.84;5017667;28;20236;-86
2022/04/19 10:25:14;;;;;;;3.92;3.40;;;;;;;18.91;31.28;98841.84;5024765;28;20280;-86
2022/04/19 10:27:42;;;;;;;5.20;3.80;;;;;;;19.17;30.85;98830.03;5017163;28;20194;-87
2022/04/19 10:30:18;;;;;;;4.28;3.53;;;;;;;19.09;30.50;98833.59;5019295;28;20235;-87
2022/04/19 10:32:45;;;;;;;6.22;3.25;;;;;;;19.14;29.95;98835.81;5017463;28;20185;-86
2022/04/19 10:35:13;;;;;;;6.10;3.70;;;;;;;19.25;29.45;98841.00;5023158;28;20212;-86
2022/04/19 10:37:41;;;;;;;5.35;3.60;;;;;;;19.38;29.38;98840.56;5032122;28;20189;-86
2022/04/19 10:40:12;;;;;;;4.72;3.20;;;;;;;19.53;29.08;98838.88;5016679;28;20209;-87
2022/04/19 10:42:42;;;;;;;4.10;3.45;;;;;;;19.53;28.99;98836.16;5011191;28;20209;-86
2022/04/19 10:45:24;;;;;;;4.78;3.20;;;;;;;19.28;29.12;98837.94;5012315;28;20192;-87
2022/04/19 10:48:14;;;;;;;4.47;3.58;;;;;;;19.37;29.21;98830.66;5012269;28;20198;-87
2022/04/19 10:50:44;;;;;;;4.53;2.95;;;;;;;19.40;29.01;98835.75;4991887;28;20209;-87
2022/04/19 10:53:11;;;;;;;4.10;3.60;;;;;;;19.75;28.90;98837.47;4993315;28;20277;-86
2022/04/19 10:55:39;;;;;;;4.90;4.15;;;;;;;19.41;29.54;98837.50;4992406;28;20234;-88
2022/04/19 10:58:16;;;;;;;4.70;3.72;;;;;;;19.28;29.60;98837.94;4992262;28;20190;-87
2022/04/19 11:01:02;;;;;;;5.22;4.32;;;;;;;19.47;29.24;98825.91;5011004;28;20576;-86
2022/04/19 11:03:47;;;;;;;4.13;3.42;;;;;;;19.33;29.27;98826.53;5006404;28;20242;-86
2022/04/19 11:06:31;;;;;;;3.83;3.45;;;;;;;19.73;28.74;98823.13;4992622;28;20197;-87
2022/04/19 11:09:23;;;;;;;3.65;3.30;;;;;;;20.07;28.36;98816.69;4992777;28;20256;-86
2022/04/19 11:11:52;;;;;;;4.93;3.50;;;;;;;20.15;28.46;98819.44;4994510;28;20205;-86
2022/04/19 11:14:23;;;;;;;4.17;3.37;;;;;;;20.04;28.46;98808.00;4992768;28;20454;-86
2022/04/19 11:16:53;;;;;;;5.60;3.57;;;;;;;20.08;28.70;98821.16;4993008;28;20427;-85
2022/04/19 11:19:23;;;;;;;4.10;3.72;;;;;;;20.20;28.64;98806.13;4999787;28;20441;-85
2022/04/19 11:21:56;;;;;;;4.35;3.45;;;;;;;20.37;28.74;98812.47;5006063;28;20205;-87
2022/04/19 11:25:00;;;;;;;6.50;5.50;;;;;;;20.27;28.75;98791.78;5001604;28;20209;-86
2022/04/19 11:28:00;;;;;;;5.57;3.80;;;;;;;20.50;28.74;98798.25;5013017;28;20210;-86
2022/04/19 11:30:27;;;;;;;4.13;3.80;;;;;;;20.70;28.08;98789.72;5004827;28;20431;-87
2022/04/19 11:32:59;;;;;;;5.50;4.80;;;;;;;20.03;28.74;98800.81;4993293;28;20438;-86
2022/04/19 11:35:28;;;;;;;6.18;4.15;;;;;;;20.00;28.55;98802.00;5004887;28;20432;-85
2022/04/19 11:37:55;;;;;;;4.28;3.85;;;;;;;19.77;28.74;98799.06;5012320;28;20256;-85
2022/04/19 11:48:45;;;;;;;4.17;3.03;;;;;;;20.39;27.66;98776.72;5004353;28;20321;-86
2022/04/19 11:51:13;;;;;;;3.20;2.90;;;;;;;20.11;28.39;98768.03;5010799;28;20970;-86
2022/04/19 11:53:40;;;;;;;4.03;3.63;;;;;;;19.94;28.18;98775.34;5009316;28;20444;-86
2022/04/19 11:56:07;;;;;;;3.60;2.67;;;;;;;20.13;28.15;98768.72;5017227;28;20560;-86
2022/04/19 11:58:35;;;;;;;4.07;3.40;;;;;;;19.69;28.67;98772.59;5015570;28;20460;-85
2022/04/19 12:01:05;;;;;;;4.95;3.65;;;;;;;20.26;28.29;98768.19;5016949;28;20515;-85
2022/04/19 12:03:36;;;;;;;8.70;5.50;;;;;;;20.58;28.57;98762.75;5019665;28;20652;-86
2022/04/19 12:06:08;;;;;;;3.83;3.47;;;;;;;20.62;27.64;98768.69;5020072;28;20808;-86
2022/04/19 12:08:37;;;;;;;5.60;4.50;;;;;;;20.80;27.60;98754.81;5024319;28;20494;-86
2022/04/19 12:11:05;;;;;;;4.23;3.20;;;;;;;20.75;27.71;98751.75;5023839;28;20480;-85
2022/04/19 12:13:32;;;;;;;4.43;3.43;;;;;;;20.78;27.64;98754.13;5016327;28;20504;-86
2022/04/19 12:16:00;;;;;;;4.27;3.50;;;;;;;21.05;27.34;98752.84;5026564;28;20433;-84
2022/04/19 12:18:35;;;;;;;3.90;2.90;;;;;;;20.90;27.23;98751.91;5026567;28;20437;-86
2022/04/19 12:21:02;;;;;;;3.80;3.30;;;;;;;20.69;27.74;98747.84;5026781;28;20435;-84
2022/04/19 12:23:31;;;;;;;3.90;3.60;;;;;;;20.56;27.97;98752.97;5024805;28;20496;-86
2022/04/19 12:25:59;;;;;;;3.90;2.90;;;;;;;20.18;28.30;98744.47;5017467;28;20442;-87